createdAt,value
2023-03-31T00:01:42.778Z,101545.43
2023-03-31T00:04:14.877Z,101543.33
2023-03-31T00:06:46.280Z,101542.21
2023-03-31T00:09:19.077Z,101541.35
2023-03-31T00:11:51.241Z,101539.08
2023-03-31T00:14:23.614Z,101538.42
2023-03-31T00:16:54.886Z,101542.31
2023-03-31T00:19:29.210Z,101535.00
2023-03-31T00:22:02.273Z,101534.98
2023-03-31T00:24:33.793Z,101521.11
2023-03-31T00:27:06.458Z,101510.48
2023-03-31T00:29:41.331Z,101500.16
2023-03-31T00:32:14.855Z,101502.99
2023-03-31T00:34:46.688Z,101500.94
2023-03-31T00:37:17.700Z,101498.71
2023-03-31T00:39:51.957Z,101495.28
2023-03-31T00:42:24.043Z,101495.35
2023-03-31T00:45:28.302Z,101486.23
2023-03-31T00:48:06.188Z,101488.39
2023-03-31T00:50:49.476Z,101494.33
2023-03-31T00:53:24.709Z,101495.47
2023-03-31T00:56:00.505Z,101494.23
2023-03-31T00:58:33.461Z,101485.80
2023-03-31T01:01:06.088Z,101483.99
2023-03-31T01:03:38.790Z,101487.21
2023-03-31T01:06:11.490Z,101488.55
2023-03-31T01:08:43.446Z,101480.56
2023-03-31T01:11:17.643Z,101476.87
2023-03-31T01:13:52.939Z,101475.80
2023-03-31T01:16:24.586Z,101476.19
2023-03-31T01:18:57.730Z,101468.63
2023-03-31T01:21:57.141Z,101456.33
2023-03-31T01:25:01.861Z,101442.64
2023-03-31T01:27:54.249Z,101448.20
2023-03-31T01:31:04.889Z,101457.71
2023-03-31T01:34:00.988Z,101450.77
2023-03-31T01:36:58.756Z,101444.73
2023-03-31T01:40:02.186Z,101444.02
2023-03-31T01:42:38.599Z,101442.31
2023-03-31T01:45:21.772Z,101443.40
2023-03-31T01:47:59.269Z,101430.98
2023-03-31T01:50:36.808Z,101425.94
2023-03-31T01:53:17.006Z,101429.67
2023-03-31T01:55:55.189Z,101417.36
2023-03-31T01:58:32.426Z,101400.73
2023-03-31T02:01:09.775Z,101397.64
2023-03-31T02:03:47.114Z,101398.30
2023-03-31T02:06:24.692Z,101397.48
2023-03-31T02:08:59.634Z,101401.05
2023-03-31T02:11:33.136Z,101404.75
2023-03-31T02:14:09.596Z,101405.50
2023-03-31T02:16:47.478Z,101401.27
2023-03-31T02:19:23.452Z,101405.81
2023-03-31T02:21:57.027Z,101400.86
2023-03-31T02:24:30.644Z,101403.06
2023-03-31T02:27:08.398Z,101406.52
2023-03-31T02:29:39.999Z,101403.30
2023-03-31T02:32:18.770Z,101402.67
2023-03-31T02:34:50.339Z,101405.00
2023-03-31T02:37:21.868Z,101395.09
2023-03-31T02:39:55.307Z,101389.19
2023-03-31T02:42:26.924Z,101387.05
2023-03-31T02:45:05.388Z,101386.84
2023-03-31T02:47:37.191Z,101383.92
2023-03-31T02:50:11.058Z,101380.54
2023-03-31T02:52:58.679Z,101382.05
2023-03-31T02:55:49.094Z,101388.45
2023-03-31T02:58:56.075Z,101384.35
2023-03-31T03:01:41.754Z,101380.78
2023-03-31T03:04:29.872Z,101380.30
2023-03-31T03:07:10.434Z,101373.10
2023-03-31T03:09:55.122Z,101368.61
2023-03-31T03:12:34.188Z,101368.92
2023-03-31T03:15:12.224Z,101365.56
2023-03-31T03:17:45.890Z,101359.94
2023-03-31T03:20:21.767Z,101369.86
2023-03-31T03:22:54.038Z,101378.83
2023-03-31T03:25:25.794Z,101370.84
2023-03-31T03:27:57.551Z,101365.84
2023-03-31T03:30:28.434Z,101353.13
2023-03-31T03:33:00.190Z,101341.65
2023-03-31T03:35:31.840Z,101338.28
2023-03-31T03:38:03.425Z,101333.70
2023-03-31T03:40:34.688Z,101331.63
2023-03-31T03:43:08.105Z,101331.67
2023-03-31T03:45:39.827Z,101330.64
2023-03-31T03:48:11.304Z,101323.83
2023-03-31T03:50:42.513Z,101323.13
2023-03-31T03:53:14.677Z,101329.29
2023-03-31T03:55:49.030Z,101330.34
2023-03-31T03:58:20.629Z,101333.55
2023-03-31T04:00:51.807Z,101337.38
2023-03-31T04:03:23.863Z,101330.67
2023-03-31T04:05:54.908Z,101321.23
2023-03-31T04:08:26.662Z,101312.27
2023-03-31T04:10:58.461Z,101304.17
2023-03-31T04:13:29.952Z,101307.02
2023-03-31T04:16:01.733Z,101312.11
2023-03-31T04:18:32.781Z,101325.50
2023-03-31T04:21:05.169Z,101321.76
2023-03-31T04:23:38.569Z,101311.45
2023-03-31T04:26:10.062Z,101304.13
2023-03-31T04:28:42.984Z,101285.84
2023-03-31T04:31:16.674Z,101277.34
2023-03-31T04:33:48.208Z,101276.29
2023-03-31T04:36:19.425Z,101277.98
2023-03-31T04:38:55.081Z,101276.91
2023-03-31T04:41:28.528Z,101275.16
2023-03-31T04:43:59.988Z,101263.06
2023-03-31T04:46:31.056Z,101252.78
2023-03-31T04:49:03.079Z,101255.05
2023-03-31T04:51:34.225Z,101261.53
2023-03-31T04:54:05.347Z,101275.83
2023-03-31T04:56:36.474Z,101287.81
2023-03-31T04:59:08.861Z,101289.70
2023-03-31T05:01:45.891Z,101302.39
2023-03-31T05:04:16.891Z,101309.66
2023-03-31T05:06:48.163Z,101318.27
2023-03-31T05:09:20.850Z,101328.95
2023-03-31T05:11:52.571Z,101325.33
2023-03-31T05:14:23.734Z,101314.95
2023-03-31T05:16:58.253Z,101307.36
2023-03-31T05:19:29.642Z,101305.56
2023-03-31T05:22:00.957Z,101304.68
2023-03-31T05:24:32.278Z,101305.46
2023-03-31T05:27:03.553Z,101295.95
2023-03-31T05:29:34.792Z,101294.92
2023-03-31T05:32:06.682Z,101286.23
2023-03-31T05:34:38.219Z,101285.63
2023-03-31T05:37:09.466Z,101287.84
2023-03-31T05:39:40.428Z,101274.80
2023-03-31T05:42:12.213Z,101255.00
2023-03-31T05:44:43.639Z,101240.05
2023-03-31T05:47:15.433Z,101242.13
2023-03-31T05:49:47.014Z,101245.59
2023-03-31T05:52:18.304Z,101242.30
2023-03-31T05:54:49.626Z,101230.91
2023-03-31T05:57:21.425Z,101231.98
2023-03-31T05:59:53.304Z,101240.05
2023-03-31T06:02:24.629Z,101258.04
2023-03-31T06:04:56.246Z,101270.02
2023-03-31T06:07:28.188Z,101260.93
2023-03-31T06:09:59.368Z,101249.14
2023-03-31T06:12:30.914Z,101243.03
2023-03-31T06:15:01.935Z,101244.86
2023-03-31T06:17:33.444Z,101254.70
2023-03-31T06:20:15.949Z,101256.39
2023-03-31T06:22:56.125Z,101244.67
2023-03-31T06:25:29.263Z,101246.58
2023-03-31T06:28:04.056Z,101256.31
2023-03-31T06:30:35.931Z,101249.00
2023-03-31T06:33:08.090Z,101257.92
2023-03-31T06:35:42.367Z,101269.27
2023-03-31T06:38:13.710Z,101267.44
2023-03-31T06:40:45.060Z,101260.44
2023-03-31T06:43:16.358Z,101253.67
2023-03-31T06:45:47.923Z,101248.60
2023-03-31T06:48:19.254Z,101243.97
2023-03-31T06:50:50.501Z,101237.77
2023-03-31T06:53:22.446Z,101234.23
2023-03-31T06:55:53.514Z,101226.13
2023-03-31T06:58:25.062Z,101215.02
2023-03-31T07:00:56.447Z,101214.58
2023-03-31T07:03:29.734Z,101216.66
2023-03-31T07:06:01.427Z,101211.52
2023-03-31T07:08:32.979Z,101194.78
2023-03-31T07:11:05.001Z,101192.92
2023-03-31T07:13:36.984Z,101200.34
2023-03-31T07:16:10.131Z,101198.40
2023-03-31T07:18:42.326Z,101198.10
2023-03-31T07:21:14.176Z,101195.88
2023-03-31T07:23:46.505Z,101190.44
2023-03-31T07:26:17.962Z,101185.88
2023-03-31T07:28:49.295Z,101192.89
2023-03-31T07:31:20.963Z,101206.15
2023-03-31T07:33:52.739Z,101208.49
2023-03-31T07:36:24.225Z,101199.66
2023-03-31T07:38:55.566Z,101202.96
2023-03-31T07:41:27.096Z,101205.54
2023-03-31T07:43:58.390Z,101202.73
2023-03-31T07:46:30.535Z,101201.75
2023-03-31T07:49:03.386Z,101196.52
2023-03-31T07:51:34.808Z,101179.74
2023-03-31T07:54:06.221Z,101164.19
2023-03-31T07:56:37.228Z,101158.40
2023-03-31T07:59:08.308Z,101157.66
2023-03-31T08:01:39.933Z,101162.13
2023-03-31T08:04:13.530Z,101156.11
2023-03-31T08:06:44.761Z,101152.55
2023-03-31T08:09:16.712Z,101158.13
2023-03-31T08:11:48.225Z,101170.41
2023-03-31T08:14:30.295Z,101167.35
2023-03-31T08:17:02.105Z,101153.55
2023-03-31T08:19:33.255Z,101153.10
2023-03-31T08:22:04.696Z,101161.14
2023-03-31T08:24:35.856Z,101160.61
2023-03-31T08:27:11.994Z,101162.82
2023-03-31T08:29:43.448Z,101161.74
2023-03-31T08:32:14.879Z,101159.52
2023-03-31T08:34:46.414Z,101156.42
2023-03-31T08:37:17.498Z,101161.65
2023-03-31T08:39:48.626Z,101155.15
2023-03-31T08:42:27.602Z,101153.70
2023-03-31T08:45:04.982Z,101156.91
2023-03-31T08:47:38.219Z,101162.48
2023-03-31T08:50:14.410Z,101166.08
2023-03-31T08:52:50.503Z,101168.58
2023-03-31T08:55:26.960Z,101167.80
2023-03-31T08:58:03.088Z,101162.45
2023-03-31T09:00:47.860Z,101166.20
2023-03-31T09:03:27.287Z,101169.81
2023-03-31T09:06:04.287Z,101164.99
2023-03-31T09:08:42.481Z,101159.84
2023-03-31T09:11:23.126Z,101163.56
2023-03-31T09:14:26.929Z,101149.03
2023-03-31T09:17:14.072Z,101136.86
2023-03-31T09:19:51.272Z,101129.12
2023-03-31T09:22:27.354Z,101121.55
2023-03-31T09:25:05.232Z,101120.17
2023-03-31T09:27:38.251Z,101112.67
2023-03-31T09:30:16.711Z,101106.58
2023-03-31T09:32:49.564Z,101101.96
2023-03-31T09:35:23.305Z,101093.20
2023-03-31T09:37:55.478Z,101096.75
2023-03-31T09:40:29.189Z,101086.39
2023-03-31T09:43:04.941Z,101071.63
2023-03-31T09:45:37.400Z,101073.23
2023-03-31T09:48:15.581Z,101082.14
2023-03-31T09:50:50.467Z,101085.40
2023-03-31T09:53:30.505Z,101089.13
2023-03-31T09:56:05.430Z,101093.54
2023-03-31T09:58:43.894Z,101092.85
2023-03-31T10:01:16.669Z,101087.25
2023-03-31T10:03:54.017Z,101083.98
2023-03-31T10:06:26.663Z,101081.74
2023-03-31T10:09:01.596Z,101066.76
2023-03-31T10:11:33.485Z,101053.84
2023-03-31T10:14:06.500Z,101044.40
2023-03-31T10:16:45.398Z,101036.80
2023-03-31T10:19:22.866Z,101038.92
2023-03-31T10:22:00.022Z,101032.50
2023-03-31T10:24:40.185Z,101025.60
2023-03-31T10:27:23.692Z,101019.24
2023-03-31T10:29:57.525Z,101029.34
2023-03-31T10:32:31.059Z,101022.41
2023-03-31T10:35:07.878Z,101017.60
2023-03-31T10:37:40.149Z,101000.23
2023-03-31T10:40:21.077Z,101008.05
2023-03-31T10:43:03.102Z,100999.83
2023-03-31T10:45:43.284Z,101006.00
2023-03-31T10:48:25.443Z,101001.36
2023-03-31T10:51:00.260Z,100990.86
2023-03-31T10:53:31.610Z,100998.42
2023-03-31T10:56:14.736Z,100990.85
2023-03-31T10:59:05.735Z,100980.86
2023-03-31T11:01:52.222Z,100972.41
2023-03-31T11:04:47.728Z,100967.67
2023-03-31T11:07:32.594Z,100971.65
2023-03-31T11:10:22.244Z,100963.54
2023-03-31T11:12:59.860Z,100962.71
2023-03-31T11:15:37.843Z,100950.23
2023-03-31T11:18:26.865Z,100950.77
2023-03-31T11:21:07.769Z,100942.25
2023-03-31T11:23:52.341Z,100936.73
2023-03-31T11:26:31.120Z,100942.70
2023-03-31T11:29:13.018Z,100946.94
2023-03-31T11:31:52.752Z,100942.67
2023-03-31T11:34:55.475Z,100938.87
2023-03-31T11:37:45.983Z,100916.30
2023-03-31T11:40:45.862Z,100895.63
2023-03-31T11:43:24.759Z,100892.75
2023-03-31T11:46:02.675Z,100895.73
2023-03-31T11:48:44.980Z,100892.16
2023-03-31T11:51:21.128Z,100883.52
2023-03-31T11:53:55.727Z,100879.98
2023-03-31T11:56:32.609Z,100884.74
2023-03-31T11:59:05.870Z,100876.50
2023-03-31T12:01:44.274Z,100880.80
2023-03-31T12:04:27.317Z,100893.63
2023-03-31T12:07:04.177Z,100895.53
2023-03-31T12:09:39.709Z,100893.92
2023-03-31T12:12:17.088Z,100895.08
2023-03-31T12:14:54.535Z,100880.58
2023-03-31T12:17:29.642Z,100858.11
2023-03-31T12:20:09.393Z,100846.15
2023-03-31T12:22:44.878Z,100850.59
2023-03-31T12:25:23.265Z,100833.45
2023-03-31T12:27:55.174Z,100825.21
2023-03-31T12:30:34.652Z,100819.05
2023-03-31T12:33:09.163Z,100802.73
2023-03-31T12:35:52.809Z,100805.50
2023-03-31T12:38:36.486Z,100810.65
2023-03-31T12:41:16.323Z,100794.52
2023-03-31T12:44:04.894Z,100794.11
2023-03-31T12:46:54.241Z,100777.80
2023-03-31T12:49:43.116Z,100785.54
2023-03-31T12:52:19.614Z,100778.14
2023-03-31T12:55:23.428Z,100769.04
2023-03-31T12:57:55.073Z,100752.52
2023-03-31T13:00:30.188Z,100761.40
2023-03-31T13:03:28.825Z,100751.47
2023-03-31T13:05:59.994Z,100746.48
2023-03-31T13:08:54.746Z,100751.35
2023-03-31T13:11:40.021Z,100757.66
2023-03-31T13:14:20.891Z,100739.73
2023-03-31T13:16:55.572Z,100736.42
2023-03-31T13:19:34.546Z,100709.97
2023-03-31T13:22:07.409Z,100706.05
2023-03-31T13:24:38.663Z,100702.88
2023-03-31T13:27:34.486Z,100712.38
2023-03-31T13:30:07.808Z,100713.56
2023-03-31T13:32:40.535Z,100698.64
2023-03-31T13:35:20.008Z,100681.11
2023-03-31T13:38:11.022Z,100669.93
2023-03-31T13:41:02.770Z,100666.95
2023-03-31T13:44:10.087Z,100662.69
2023-03-31T13:47:02.620Z,100663.28
2023-03-31T13:49:55.458Z,100665.40
2023-03-31T13:52:41.001Z,100658.75
2023-03-31T13:55:45.410Z,100655.88
2023-03-31T13:58:44.235Z,100651.63
2023-03-31T14:01:42.232Z,100634.09
2023-03-31T14:04:30.065Z,100618.97
2023-03-31T14:07:03.771Z,100609.64
2023-03-31T14:09:36.922Z,100609.56
2023-03-31T14:15:19.108Z,100581.59
2023-03-31T14:17:51.068Z,100569.61
2023-03-31T14:20:43.842Z,100559.89
2023-03-31T14:23:26.382Z,100560.27
2023-03-31T14:26:06.268Z,100570.41
2023-03-31T14:28:54.661Z,100548.73
2023-03-31T14:31:35.686Z,100545.41
2023-03-31T14:34:37.113Z,100535.57
2023-03-31T14:37:11.850Z,100529.31
2023-03-31T14:39:45.947Z,100536.08
2023-03-31T14:42:19.756Z,100537.02
2023-03-31T14:44:56.794Z,100537.56
2023-03-31T14:47:30.500Z,100527.63
2023-03-31T14:50:09.213Z,100523.20
2023-03-31T14:52:41.060Z,100509.77
2023-03-31T14:55:20.066Z,100511.16
2023-03-31T14:57:54.921Z,100521.23
2023-03-31T15:00:30.319Z,100522.63
2023-03-31T15:03:04.905Z,100518.52
2023-03-31T15:05:39.533Z,100511.29
2023-03-31T15:08:18.106Z,100504.70
2023-03-31T15:10:58.936Z,100497.79
2023-03-31T15:13:40.950Z,100486.40
2023-03-31T15:16:36.406Z,100504.25
2023-03-31T15:19:16.604Z,100504.80
2023-03-31T15:21:55.182Z,100500.34
2023-03-31T15:24:27.654Z,100500.30
2023-03-31T15:27:04.282Z,100503.01
2023-03-31T15:29:40.322Z,100510.55
2023-03-31T15:32:17.722Z,100503.59
2023-03-31T15:34:49.703Z,100485.68
2023-03-31T15:37:27.976Z,100475.90
2023-03-31T15:40:05.239Z,100481.38
2023-03-31T15:42:39.365Z,100481.14
2023-03-31T15:45:50.051Z,100473.41
2023-03-31T15:48:33.625Z,100457.42
2023-03-31T15:51:18.513Z,100453.75
2023-03-31T15:53:53.462Z,100453.27
2023-03-31T15:56:43.949Z,100440.55
2023-03-31T15:59:34.322Z,100450.45
2023-03-31T16:02:16.320Z,100465.31
2023-03-31T16:04:52.094Z,100473.66
2023-03-31T16:07:27.513Z,100469.64
2023-03-31T16:10:02.161Z,100453.14
2023-03-31T16:12:37.284Z,100447.90
2023-03-31T16:15:14.341Z,100452.12
2023-03-31T16:17:54.133Z,100443.02
2023-03-31T16:20:30.365Z,100451.16
2023-03-31T16:23:03.890Z,100453.47
2023-03-31T16:25:40.456Z,100446.84
2023-03-31T16:28:18.420Z,100440.36
2023-03-31T16:30:50.499Z,100437.20
2023-03-31T16:33:24.868Z,100432.51
2023-03-31T16:35:58.898Z,100421.55
2023-03-31T16:38:31.607Z,100425.08
2023-03-31T16:41:03.167Z,100406.35
2023-03-31T16:43:35.947Z,100400.22
2023-03-31T16:46:08.082Z,100387.05
2023-03-31T16:48:39.708Z,100380.30
2023-03-31T16:51:11.903Z,100376.29
2023-03-31T16:53:57.545Z,100383.81
2023-03-31T16:56:30.928Z,100386.33
2023-03-31T16:59:03.855Z,100391.91
2023-03-31T17:01:36.408Z,100386.80
2023-03-31T17:04:08.546Z,100384.63
2023-03-31T17:06:40.245Z,100391.05
2023-03-31T17:09:12.361Z,100389.73
2023-03-31T17:11:43.682Z,100392.36
2023-03-31T17:14:15.182Z,100396.33
2023-03-31T17:16:48.471Z,100394.27
2023-03-31T17:19:22.762Z,100390.77
2023-03-31T17:21:55.263Z,100376.67
2023-03-31T17:24:27.599Z,100375.64
2023-03-31T17:26:59.303Z,100391.48
2023-03-31T17:29:30.871Z,100411.94
2023-03-31T17:32:02.472Z,100417.15
2023-03-31T17:34:34.667Z,100414.20
2023-03-31T17:37:07.065Z,100413.20
2023-03-31T17:39:38.514Z,100419.21
2023-03-31T17:42:10.316Z,100416.11
2023-03-31T17:44:42.521Z,100406.98
2023-03-31T17:47:13.994Z,100397.98
2023-03-31T17:49:45.128Z,100412.13
2023-03-31T17:52:17.093Z,100430.48
2023-03-31T17:54:50.674Z,100433.83
2023-03-31T17:57:22.729Z,100436.29
2023-03-31T17:59:54.485Z,100443.79
2023-03-31T18:02:26.131Z,100444.95
2023-03-31T18:04:58.398Z,100448.60
2023-03-31T18:07:30.216Z,100441.54
2023-03-31T18:10:05.446Z,100432.59
2023-03-31T18:12:37.960Z,100417.89
2023-03-31T18:15:11.818Z,100417.01
2023-03-31T18:17:44.696Z,100415.80
2023-03-31T18:20:16.898Z,100425.34
2023-03-31T18:22:48.249Z,100444.23
2023-03-31T18:25:19.431Z,100444.54
2023-03-31T18:27:50.936Z,100436.61
2023-03-31T18:30:22.816Z,100434.92
2023-03-31T18:32:54.829Z,100442.48
2023-03-31T18:35:27.483Z,100442.80
2023-03-31T18:37:59.088Z,100427.66
2023-03-31T18:40:30.864Z,100428.38
2023-03-31T18:43:02.819Z,100434.08
2023-03-31T18:45:35.027Z,100437.00
2023-03-31T18:48:06.762Z,100440.79
2023-03-31T18:50:38.313Z,100432.42
2023-03-31T18:53:09.817Z,100434.88
2023-03-31T18:55:41.160Z,100443.84
2023-03-31T18:58:13.618Z,100441.98
2023-03-31T19:00:45.473Z,100442.38
2023-03-31T19:03:17.621Z,100441.04
2023-03-31T19:05:49.774Z,100425.02
2023-03-31T19:08:22.036Z,100417.02
2023-03-31T19:10:53.871Z,100422.15
2023-03-31T19:13:25.005Z,100429.51
2023-03-31T19:15:56.440Z,100433.49
2023-03-31T19:18:28.544Z,100426.09
2023-03-31T19:21:00.521Z,100432.05
2023-03-31T19:23:33.118Z,100439.58
2023-03-31T19:26:05.194Z,100444.09
2023-03-31T19:28:37.379Z,100449.01
2023-03-31T19:31:09.073Z,100443.68
2023-03-31T19:33:41.003Z,100442.44
2023-03-31T19:36:13.524Z,100434.00
2023-03-31T19:38:45.341Z,100433.31
2023-03-31T19:41:18.449Z,100441.20
2023-03-31T19:43:50.414Z,100435.11
2023-03-31T19:46:21.486Z,100422.47
2023-03-31T19:48:52.916Z,100414.96
2023-03-31T19:51:24.614Z,100410.56
2023-03-31T19:53:57.077Z,100406.39
2023-03-31T19:56:28.766Z,100409.16
2023-03-31T19:59:00.543Z,100402.68
2023-03-31T20:01:31.982Z,100396.61
2023-03-31T20:04:03.966Z,100420.59
2023-03-31T20:06:37.509Z,100421.48
2023-03-31T20:09:09.261Z,100434.34
2023-03-31T20:11:43.635Z,100444.58
2023-03-31T20:14:15.798Z,100442.58
2023-03-31T20:16:48.055Z,100438.61
2023-03-31T20:19:20.291Z,100429.35
2023-03-31T20:21:56.091Z,100414.73
2023-03-31T20:24:29.567Z,100419.20
2023-03-31T20:27:01.689Z,100425.08
2023-03-31T20:29:33.152Z,100423.38
2023-03-31T20:32:05.922Z,100420.18
2023-03-31T20:34:37.380Z,100426.27
2023-03-31T20:37:09.102Z,100420.10
2023-03-31T20:39:41.286Z,100405.99
2023-03-31T20:42:13.352Z,100398.02
2023-03-31T20:44:44.965Z,100403.48
2023-03-31T20:47:16.192Z,100398.35
2023-03-31T20:49:49.453Z,100405.86
2023-03-31T20:52:20.972Z,100422.50
2023-03-31T20:54:52.390Z,100430.98
2023-03-31T20:57:24.527Z,100432.77
2023-03-31T20:59:57.404Z,100429.33
2023-03-31T21:02:29.527Z,100425.05
2023-03-31T21:05:01.985Z,100425.36
2023-03-31T21:07:34.299Z,100427.36
2023-03-31T21:10:06.250Z,100428.89
2023-03-31T21:12:38.113Z,100432.00
2023-03-31T21:15:12.582Z,100439.69
2023-03-31T21:17:44.082Z,100443.91
2023-03-31T21:20:15.960Z,100442.13
2023-03-31T21:22:47.404Z,100436.32
2023-03-31T21:25:19.085Z,100440.27
2023-03-31T21:27:51.081Z,100433.52
2023-03-31T21:30:28.580Z,100427.55
2023-03-31T21:33:00.303Z,100423.81
2023-03-31T21:35:32.516Z,100425.52
2023-03-31T21:38:05.239Z,100422.67
2023-03-31T21:40:37.845Z,100427.36
2023-03-31T21:43:10.197Z,100439.34
2023-03-31T21:45:43.119Z,100428.31
2023-03-31T21:48:15.410Z,100427.83
2023-03-31T21:50:48.380Z,100433.25
2023-03-31T21:53:20.192Z,100426.51
2023-03-31T21:56:00.735Z,100419.48
2023-03-31T21:58:36.147Z,100425.59
2023-03-31T22:01:08.517Z,100416.96
2023-03-31T22:03:42.518Z,100413.11
2023-03-31T22:06:13.812Z,100414.86
2023-03-31T22:08:45.137Z,100412.52
2023-03-31T22:11:17.262Z,100420.02
2023-03-31T22:13:49.467Z,100408.23
2023-03-31T22:16:23.368Z,100415.04
2023-03-31T22:18:55.605Z,100410.98
2023-03-31T22:21:45.373Z,100400.60
2023-03-31T22:24:17.274Z,100394.44
2023-03-31T22:26:48.937Z,100383.21
2023-03-31T22:29:20.383Z,100387.97
2023-03-31T22:31:52.928Z,100383.73
2023-03-31T22:34:24.796Z,100388.70
2023-03-31T22:36:57.664Z,100387.47
2023-03-31T22:39:29.837Z,100395.36
2023-03-31T22:42:01.015Z,100388.02
2023-03-31T22:44:33.330Z,100383.21
2023-03-31T22:47:04.992Z,100384.48
2023-03-31T22:49:36.716Z,100376.58
2023-03-31T22:52:09.364Z,100374.70
2023-03-31T22:54:41.383Z,100376.25
2023-03-31T22:57:13.608Z,100367.81
2023-03-31T22:59:45.976Z,100363.50
2023-03-31T23:02:19.395Z,100362.27
2023-03-31T23:04:50.918Z,100378.52
2023-03-31T23:07:23.333Z,100379.13
2023-03-31T23:09:55.479Z,100362.49
2023-03-31T23:12:29.739Z,100361.17
2023-03-31T23:15:01.732Z,100368.65
2023-03-31T23:17:34.189Z,100369.83
2023-03-31T23:20:07.789Z,100371.23
2023-03-31T23:22:39.526Z,100370.86
2023-03-31T23:25:11.900Z,100372.38
2023-03-31T23:27:43.865Z,100369.40
2023-03-31T23:30:17.660Z,100372.14
2023-03-31T23:32:49.118Z,100369.27
2023-03-31T23:35:20.766Z,100378.02
2023-03-31T23:37:52.292Z,100379.72
2023-03-31T23:40:23.761Z,100369.55
2023-03-31T23:42:55.415Z,100371.98
2023-03-31T23:45:26.765Z,100376.08
2023-03-31T23:47:58.900Z,100371.91
2023-03-31T23:50:30.280Z,100369.71
2023-03-31T23:53:02.370Z,100368.48
2023-03-31T23:55:34.152Z,100365.78
2023-03-31T23:58:09.248Z,100365.45
